Terminal Aerodrome Forecast
Issued by NWS Portland, OR

Home | Current Version | Previous Version | Text Only | Print | Product List | Glossary On
Versions: 1 2 3 4 5 6 7 8 9 10 11 12 13 14 15 16 17 18 19 20 21 22 23 24 25 26 27 28 29 30 31 32 33 34 35 36 37 38 39
000
FTUS46 KPQR 301933 AAA
TAFAST
TAF AMD
KAST 301933Z 3020/3118 19007KT P6SM -SHRA BKN005 OVC020
     FM302200 21010KT P6SM -SHRA SCT015 BKN025 OVC035
     FM310300 23006KT P6SM VCSH BKN025 OVC040
     FM310600 26006KT P6SM OVC020
     FM311400 20003KT P6SM BKN015 BKN025=

USA.gov is the U.S. government's official web portal to all federal, state and local government web resources and services.